createdAt,value
2022-11-30T00:00:12.172Z,89.48
2022-11-30T00:02:39.714Z,89.54
2022-11-30T00:05:07.893Z,89.72
2022-11-30T00:07:35.768Z,89.15
2022-11-30T00:10:09.756Z,88.55
2022-11-30T00:12:37.854Z,89.48
2022-11-30T00:15:06.150Z,90.04
2022-11-30T00:17:33.207Z,90.71
2022-11-30T00:20:05.820Z,90.45
2022-11-30T00:22:35.850Z,90.22
2022-11-30T00:25:04.958Z,90.24
2022-11-30T00:27:39.092Z,90.23
2022-11-30T00:30:08.311Z,90.44
2022-11-30T00:32:35.513Z,89.97
2022-11-30T00:35:03.959Z,90.17
2022-11-30T00:37:31.537Z,89.80
2022-11-30T00:43:15.334Z,89.60
2022-11-30T00:45:48.695Z,90.29
2022-11-30T00:48:17.536Z,90.24
2022-11-30T00:50:50.237Z,89.91
2022-11-30T00:53:18.112Z,89.96
2022-11-30T00:56:11.411Z,89.88
2022-11-30T00:58:40.069Z,90.19
2022-11-30T01:01:08.309Z,89.66
2022-11-30T01:04:02.877Z,88.77
2022-11-30T01:06:31.164Z,89.79
2022-11-30T01:09:03.797Z,89.81
2022-11-30T01:11:37.192Z,90.08
2022-11-30T01:14:05.261Z,89.56
2022-11-30T01:16:39.043Z,89.82
2022-11-30T01:19:07.175Z,89.50
2022-11-30T01:21:35.207Z,89.01
2022-11-30T01:24:03.191Z,89.44
2022-11-30T01:26:31.146Z,89.63
2022-11-30T01:28:59.223Z,89.33
2022-11-30T01:31:27.200Z,88.71
2022-11-30T01:33:56.112Z,88.54
2022-11-30T01:36:28.036Z,89.51
2022-11-30T01:39:01.271Z,88.63
2022-11-30T01:41:31.439Z,88.18
2022-11-30T01:44:15.499Z,88.41
2022-11-30T01:47:03.284Z,87.84
2022-11-30T01:50:13.720Z,87.77
2022-11-30T01:52:46.989Z,89.09
2022-11-30T01:55:31.878Z,89.63
2022-11-30T01:58:07.491Z,89.17
2022-11-30T02:00:40.642Z,89.41
2022-11-30T02:03:20.020Z,89.00
2022-11-30T02:05:47.203Z,89.19
2022-11-30T02:08:19.576Z,88.95
2022-11-30T02:10:52.780Z,88.65
2022-11-30T02:14:10.886Z,89.31
2022-11-30T02:17:11.893Z,88.78
2022-11-30T02:20:02.332Z,88.83
2022-11-30T02:23:17.406Z,89.27
2022-11-30T02:29:08.979Z,87.85
2022-11-30T02:32:08.829Z,87.40
2022-11-30T02:34:38.548Z,88.76
2022-11-30T02:37:08.004Z,88.96
2022-11-30T02:39:42.100Z,89.33
2022-11-30T02:42:13.331Z,89.01
2022-11-30T02:44:51.332Z,89.56
2022-11-30T02:47:48.848Z,88.49
2022-11-30T02:50:30.130Z,89.07
2022-11-30T02:52:57.665Z,89.54
2022-11-30T02:58:43.316Z,88.79
2022-11-30T03:01:20.252Z,88.63
2022-11-30T03:03:47.239Z,88.24
2022-11-30T03:06:20.151Z,88.86
2022-11-30T03:08:47.128Z,88.17
2022-11-30T03:11:19.204Z,89.25
2022-11-30T03:13:51.351Z,89.60
2022-11-30T03:16:19.172Z,90.54
2022-11-30T03:18:56.212Z,90.92
2022-11-30T03:21:23.158Z,90.83
2022-11-30T03:24:15.833Z,90.24
2022-11-30T03:26:43.169Z,90.22
2022-11-30T03:29:15.223Z,89.86
2022-11-30T03:31:43.163Z,90.05
2022-11-30T03:34:11.145Z,89.55
2022-11-30T03:36:39.152Z,89.29
2022-11-30T03:41:59.119Z,89.66
2022-11-30T03:44:31.143Z,89.89
2022-11-30T03:46:59.139Z,88.97
2022-11-30T03:49:32.269Z,88.72
2022-11-30T03:51:59.190Z,88.49
2022-11-30T03:54:27.119Z,88.84
2022-11-30T03:57:24.547Z,89.24
2022-11-30T03:59:57.167Z,89.56
2022-11-30T04:02:25.287Z,89.09
2022-11-30T04:04:53.128Z,89.45
2022-11-30T04:07:21.236Z,90.25
2022-11-30T04:09:49.142Z,89.76
2022-11-30T04:15:33.159Z,89.63
2022-11-30T04:18:01.225Z,90.51
2022-11-30T04:20:29.192Z,91.55
2022-11-30T04:22:57.968Z,91.21
2022-11-30T04:25:51.817Z,89.80
2022-11-30T04:28:19.469Z,89.98
2022-11-30T04:30:52.151Z,89.90
2022-11-30T04:33:24.277Z,89.61
2022-11-30T04:35:55.530Z,89.71
2022-11-30T04:38:24.208Z,89.68
2022-11-30T04:40:51.671Z,89.27
2022-11-30T04:43:19.570Z,89.60
2022-11-30T04:45:52.662Z,89.05
2022-11-30T04:48:21.132Z,89.97
2022-11-30T04:51:13.183Z,89.28
2022-11-30T04:53:41.110Z,90.57
2022-11-30T04:59:03.338Z,90.20
2022-11-30T05:01:31.249Z,89.89
2022-11-30T05:04:00.135Z,89.27
2022-11-30T05:07:18.287Z,88.89
2022-11-30T05:10:09.972Z,89.08
2022-11-30T05:12:37.180Z,88.85
2022-11-30T05:15:05.754Z,89.72
2022-11-30T05:17:39.586Z,89.04
2022-11-30T05:20:13.579Z,90.35
2022-11-30T05:22:41.229Z,90.64
2022-11-30T05:25:09.813Z,89.74
2022-11-30T05:27:37.592Z,89.16
2022-11-30T05:30:07.031Z,88.60
2022-11-30T05:32:35.311Z,88.89
2022-11-30T05:35:03.583Z,89.23
2022-11-30T05:37:31.151Z,89.08
2022-11-30T05:39:59.359Z,89.37
2022-11-30T05:45:24.151Z,89.10
2022-11-30T05:47:51.767Z,90.16
2022-11-30T05:50:45.207Z,89.55
2022-11-30T05:53:13.136Z,90.54
2022-11-30T05:55:42.271Z,90.74
2022-11-30T05:58:40.248Z,89.80
2022-11-30T06:04:08.526Z,89.70
2022-11-30T06:06:37.288Z,89.62
2022-11-30T06:09:05.160Z,89.04
2022-11-30T06:14:25.215Z,91.46
2022-11-30T06:16:53.210Z,90.19
2022-11-30T06:19:21.254Z,89.80
2022-11-30T06:21:49.160Z,89.67
2022-11-30T06:24:17.151Z,89.27
2022-11-30T06:26:45.178Z,89.42
2022-11-30T06:32:11.096Z,89.56
2022-11-30T06:34:39.136Z,90.52
2022-11-30T06:37:07.195Z,90.02
2022-11-30T06:42:30.115Z,90.77
2022-11-30T06:45:03.780Z,90.48
2022-11-30T06:47:31.249Z,89.84
2022-11-30T06:50:28.304Z,90.90
2022-11-30T06:53:21.222Z,90.40
2022-11-30T06:55:49.160Z,90.03
2022-11-30T06:58:17.163Z,89.54
2022-11-30T07:00:54.195Z,90.31
2022-11-30T07:03:21.143Z,89.66
2022-11-30T07:05:49.161Z,89.00
2022-11-30T07:08:17.552Z,88.74
2022-11-30T07:10:51.134Z,89.52
2022-11-30T07:13:19.555Z,89.73
2022-11-30T07:15:53.205Z,90.65
2022-11-30T07:18:21.172Z,90.95
2022-11-30T07:20:49.161Z,91.07
2022-11-30T07:23:35.634Z,91.11
2022-11-30T07:26:06.748Z,90.80
2022-11-30T07:28:40.538Z,90.23
2022-11-30T07:31:25.857Z,90.28
2022-11-30T07:33:53.739Z,89.95
2022-11-30T07:36:22.867Z,89.84
2022-11-30T07:38:56.519Z,89.21
2022-11-30T07:41:24.057Z,89.32
2022-11-30T07:43:57.445Z,88.95
2022-11-30T07:46:25.323Z,88.45
2022-11-30T07:48:57.141Z,89.82
2022-11-30T07:51:25.353Z,90.51
2022-11-30T07:53:56.563Z,90.11
2022-11-30T07:56:30.836Z,89.84
2022-11-30T07:59:00.933Z,90.00
2022-11-30T08:01:53.258Z,89.92
2022-11-30T08:04:26.387Z,90.16
2022-11-30T08:06:54.346Z,89.28
2022-11-30T08:09:49.026Z,89.71
2022-11-30T08:12:17.420Z,89.82
2022-11-30T08:15:18.244Z,89.60
2022-11-30T08:17:37.165Z,89.27
2022-11-30T08:20:08.060Z,89.90
2022-11-30T08:22:35.919Z,89.24
2022-11-30T08:25:03.429Z,89.19
2022-11-30T08:27:31.170Z,88.68
2022-11-30T08:30:27.739Z,88.87
2022-11-30T08:32:59.132Z,89.33
2022-11-30T08:35:51.102Z,89.25
2022-11-30T08:38:19.148Z,89.33
2022-11-30T08:40:47.142Z,89.24
2022-11-30T08:43:15.582Z,88.74
2022-11-30T08:45:43.200Z,88.98
2022-11-30T08:48:11.148Z,89.16
2022-11-30T08:50:39.128Z,88.87
2022-11-30T08:53:11.187Z,88.65
2022-11-30T08:55:39.149Z,88.84
2022-11-30T08:58:07.349Z,89.30
2022-11-30T09:00:35.136Z,89.02
2022-11-30T09:03:07.187Z,88.54
2022-11-30T09:05:35.214Z,89.60
2022-11-30T09:08:03.339Z,90.01
2022-11-30T09:10:31.155Z,89.51
2022-11-30T09:13:23.132Z,89.27
2022-11-30T09:15:55.721Z,89.14
2022-11-30T09:18:23.145Z,89.88
2022-11-30T09:21:02.573Z,89.57
2022-11-30T09:23:31.504Z,89.93
2022-11-30T09:26:00.964Z,90.16
2022-11-30T09:28:39.725Z,90.39
2022-11-30T09:31:13.075Z,90.45
2022-11-30T09:33:42.000Z,90.12
2022-11-30T09:36:11.898Z,89.58
2022-11-30T09:38:39.891Z,89.38
2022-11-30T09:41:25.289Z,89.53
2022-11-30T09:44:21.597Z,89.84
2022-11-30T09:47:33.165Z,89.75
2022-11-30T09:50:14.436Z,89.81
2022-11-30T09:55:42.764Z,89.74
2022-11-30T09:58:36.202Z,89.16
2022-11-30T10:01:09.701Z,88.40
2022-11-30T10:03:37.512Z,89.20
2022-11-30T10:06:51.157Z,89.01
2022-11-30T10:10:31.078Z,89.49
2022-11-30T10:13:12.431Z,88.97
2022-11-30T10:15:57.557Z,88.62
2022-11-30T10:18:40.248Z,88.21
2022-11-30T10:21:22.564Z,87.99
2022-11-30T10:24:29.177Z,87.73
2022-11-30T10:26:58.654Z,88.17
2022-11-30T10:29:35.481Z,88.18
2022-11-30T10:32:17.597Z,88.58
2022-11-30T10:35:15.457Z,88.01
2022-11-30T10:37:44.538Z,87.76
2022-11-30T10:40:43.581Z,87.80
2022-11-30T10:46:19.826Z,87.69
2022-11-30T10:49:02.760Z,87.44
2022-11-30T10:51:59.750Z,87.54
2022-11-30T10:55:00.538Z,89.29
2022-11-30T10:57:32.408Z,88.45
2022-11-30T11:00:02.964Z,88.78
2022-11-30T11:02:43.431Z,89.02
2022-11-30T11:05:23.088Z,89.10
2022-11-30T11:08:06.864Z,88.42
2022-11-30T11:10:59.442Z,88.31
2022-11-30T11:13:42.044Z,89.19
2022-11-30T11:16:12.035Z,88.39
2022-11-30T11:18:56.665Z,89.50
2022-11-30T11:21:29.210Z,89.20
2022-11-30T11:23:58.025Z,88.68
2022-11-30T11:26:27.346Z,88.37
2022-11-30T11:28:59.387Z,88.08
2022-11-30T11:31:51.178Z,88.46
2022-11-30T11:34:36.703Z,88.56
2022-11-30T11:37:38.170Z,88.32
2022-11-30T11:40:07.995Z,87.85
2022-11-30T11:42:41.161Z,87.95
2022-11-30T11:45:17.035Z,89.10
2022-11-30T11:47:45.857Z,89.55
2022-11-30T11:50:13.116Z,90.13
2022-11-30T11:52:41.232Z,89.25
2022-11-30T11:55:16.903Z,89.14
2022-11-30T11:57:56.485Z,89.35
2022-11-30T12:00:25.361Z,89.67
2022-11-30T12:03:19.295Z,89.90
2022-11-30T12:05:53.579Z,89.28
2022-11-30T12:08:43.160Z,88.68
2022-11-30T12:11:18.518Z,88.84
2022-11-30T12:13:51.597Z,88.24
2022-11-30T12:16:29.973Z,88.34
2022-11-30T12:19:06.644Z,88.35
2022-11-30T12:21:54.465Z,88.34
2022-11-30T12:24:26.393Z,89.13
2022-11-30T12:27:17.683Z,90.02
2022-11-30T12:29:59.720Z,89.07
2022-11-30T12:33:02.564Z,89.76
2022-11-30T12:35:41.877Z,89.19
2022-11-30T12:38:37.078Z,89.93
2022-11-30T12:41:32.636Z,89.82
2022-11-30T12:44:42.595Z,90.85
2022-11-30T12:47:46.254Z,91.49
2022-11-30T12:50:31.115Z,90.10
2022-11-30T12:53:23.509Z,90.11
2022-11-30T12:56:10.448Z,90.25
2022-11-30T12:58:58.149Z,89.76
2022-11-30T13:01:31.247Z,89.09
2022-11-30T13:04:08.944Z,88.70
2022-11-30T13:07:00.263Z,89.60
2022-11-30T13:09:38.367Z,89.57
2022-11-30T13:12:22.372Z,90.32
2022-11-30T13:14:51.196Z,89.40
2022-11-30T13:17:24.202Z,89.32
2022-11-30T13:20:19.625Z,89.24
2022-11-30T13:23:08.610Z,89.12
2022-11-30T13:28:46.428Z,88.52
2022-11-30T13:31:25.135Z,89.25
2022-11-30T13:33:53.084Z,89.91
2022-11-30T13:36:45.240Z,90.57
2022-11-30T13:39:27.343Z,89.56
2022-11-30T13:42:01.219Z,91.07
2022-11-30T13:44:37.097Z,90.60
2022-11-30T13:47:21.555Z,89.86
2022-11-30T13:49:55.785Z,89.30
2022-11-30T13:53:01.021Z,88.91
2022-11-30T13:55:36.231Z,88.86
2022-11-30T13:58:08.303Z,89.62
2022-11-30T14:00:35.116Z,89.61
2022-11-30T14:03:20.942Z,89.27
2022-11-30T14:05:56.138Z,90.41
2022-11-30T14:08:23.179Z,90.09
2022-11-30T14:10:51.789Z,91.25
2022-11-30T14:13:27.692Z,90.28
2022-11-30T14:15:58.238Z,91.40
2022-11-30T14:18:42.232Z,92.37
2022-11-30T14:21:22.511Z,92.58
2022-11-30T14:27:07.391Z,92.39
2022-11-30T14:29:37.103Z,91.76
2022-11-30T14:32:11.653Z,91.87
2022-11-30T14:34:45.971Z,91.18
2022-11-30T14:37:26.533Z,91.18
2022-11-30T14:39:59.325Z,91.10
2022-11-30T14:42:29.963Z,90.81
2022-11-30T14:44:57.430Z,90.81
2022-11-30T14:47:32.454Z,90.51
2022-11-30T14:53:27.216Z,89.70
2022-11-30T14:56:26.746Z,90.18
2022-11-30T14:59:30.840Z,89.22
2022-11-30T15:02:02.512Z,89.14
2022-11-30T15:04:30.004Z,91.63
2022-11-30T15:07:03.354Z,91.15
2022-11-30T15:09:37.652Z,91.85
2022-11-30T15:15:11.544Z,90.55
2022-11-30T15:17:53.053Z,89.69
2022-11-30T15:20:53.881Z,91.37
2022-11-30T15:23:51.126Z,90.12
2022-11-30T15:26:19.387Z,91.14
2022-11-30T15:29:16.814Z,90.86
2022-11-30T15:37:48.167Z,92.88
2022-11-30T15:40:21.521Z,93.08
2022-11-30T15:45:53.236Z,92.92
2022-11-30T15:48:28.575Z,92.37
2022-11-30T15:50:57.695Z,92.81
2022-11-30T15:53:31.094Z,92.49
2022-11-30T15:56:08.515Z,92.11
2022-11-30T15:58:47.112Z,92.88
2022-11-30T16:01:22.348Z,91.74
2022-11-30T16:03:55.168Z,90.69
2022-11-30T16:06:26.494Z,89.91
2022-11-30T16:08:53.851Z,91.09
2022-11-30T16:11:21.832Z,91.09
2022-11-30T16:13:54.272Z,90.62
2022-11-30T16:16:25.947Z,90.50
2022-11-30T16:18:58.166Z,89.93
2022-11-30T16:21:25.438Z,89.58
2022-11-30T16:23:58.550Z,89.85
2022-11-30T16:29:15.138Z,90.38
2022-11-30T16:31:43.217Z,90.32
2022-11-30T16:34:40.175Z,90.72
2022-11-30T16:37:14.645Z,90.74
2022-11-30T16:39:43.291Z,90.46
2022-11-30T16:42:40.226Z,91.38
2022-11-30T16:45:22.449Z,90.64
2022-11-30T16:48:15.166Z,90.73
2022-11-30T16:50:44.591Z,90.84
2022-11-30T16:53:17.104Z,91.00
2022-11-30T16:55:45.378Z,90.71
2022-11-30T16:58:39.345Z,91.32
2022-11-30T17:01:14.520Z,90.61
2022-11-30T17:03:46.930Z,90.30
2022-11-30T17:06:23.343Z,91.36
2022-11-30T17:08:51.259Z,91.47
2022-11-30T17:11:30.119Z,90.35
2022-11-30T17:14:03.255Z,89.68
2022-11-30T17:16:31.293Z,90.01
2022-11-30T17:19:04.322Z,90.78
2022-11-30T17:22:00.839Z,90.95
2022-11-30T17:24:29.253Z,91.58
2022-11-30T17:26:57.624Z,91.90
2022-11-30T17:29:25.369Z,91.95
2022-11-30T17:31:53.748Z,91.61
2022-11-30T17:34:27.202Z,91.50
2022-11-30T17:36:56.603Z,91.07
2022-11-30T17:39:29.191Z,90.83
2022-11-30T17:42:02.291Z,90.10
2022-11-30T17:44:34.141Z,90.10
2022-11-30T17:47:01.137Z,89.49
2022-11-30T17:49:34.237Z,89.25
2022-11-30T17:52:01.180Z,89.29
2022-11-30T17:54:29.417Z,90.87
2022-11-30T17:56:59.072Z,90.48
2022-11-30T17:59:35.338Z,91.17
2022-11-30T18:02:03.283Z,90.49
2022-11-30T18:04:31.148Z,91.09
2022-11-30T18:06:59.216Z,90.71
2022-11-30T18:09:27.718Z,91.48
2022-11-30T18:11:55.323Z,91.34
2022-11-30T18:14:27.182Z,91.20
2022-11-30T18:17:00.295Z,91.70
2022-11-30T18:19:27.271Z,90.80
2022-11-30T18:21:55.473Z,90.04
2022-11-30T18:24:25.527Z,89.79
2022-11-30T18:26:53.625Z,90.40
2022-11-30T18:29:21.161Z,90.30
2022-11-30T18:31:58.253Z,90.01
2022-11-30T18:34:25.531Z,90.62
2022-11-30T18:36:58.147Z,91.17
2022-11-30T18:39:25.235Z,91.44
2022-11-30T18:41:53.363Z,91.19
2022-11-30T18:47:37.106Z,91.57
2022-11-30T18:50:09.410Z,92.00
2022-11-30T18:52:37.175Z,91.13
2022-11-30T18:55:10.528Z,91.05
2022-11-30T18:57:37.155Z,90.41
2022-11-30T19:00:05.874Z,89.62
2022-11-30T19:02:34.294Z,90.01
2022-11-30T19:05:01.173Z,90.93
2022-11-30T19:07:35.377Z,91.05
2022-11-30T19:10:08.549Z,90.38
2022-11-30T19:12:37.127Z,90.44
2022-11-30T19:15:30.060Z,89.50
2022-11-30T19:17:57.195Z,89.48
2022-11-30T19:20:29.209Z,89.40
2022-11-30T19:22:57.136Z,89.22
2022-11-30T19:25:25.149Z,88.89
2022-11-30T19:27:57.167Z,91.05
2022-11-30T19:30:26.287Z,91.04
2022-11-30T19:32:53.642Z,90.86
2022-11-30T19:35:22.952Z,90.29
2022-11-30T19:37:55.265Z,90.70
2022-11-30T19:40:23.130Z,90.70
2022-11-30T19:42:51.173Z,90.39
2022-11-30T19:45:24.214Z,90.58
2022-11-30T19:47:51.239Z,91.91
2022-11-30T19:50:19.190Z,91.55
2022-11-30T19:52:47.253Z,90.72
2022-11-30T19:55:15.260Z,90.44
2022-11-30T19:57:43.147Z,91.19
2022-11-30T20:03:10.017Z,90.37
2022-11-30T20:08:34.465Z,90.56
2022-11-30T20:11:01.141Z,91.17
2022-11-30T20:13:30.358Z,91.48
2022-11-30T20:15:57.207Z,90.87
2022-11-30T20:18:25.192Z,90.68
2022-11-30T20:20:53.166Z,90.76
2022-11-30T20:23:21.161Z,89.69
2022-11-30T20:25:49.131Z,90.19
2022-11-30T20:28:17.122Z,90.79
2022-11-30T20:31:13.289Z,91.35
2022-11-30T20:33:43.918Z,90.67
2022-11-30T20:36:12.167Z,90.49
2022-11-30T20:38:39.638Z,89.75
2022-11-30T20:41:17.397Z,90.77
2022-11-30T20:43:45.717Z,90.93
2022-11-30T20:46:28.224Z,90.99
2022-11-30T20:48:55.914Z,90.36
2022-11-30T20:51:32.554Z,89.83
2022-11-30T20:54:03.336Z,89.17
2022-11-30T20:56:31.427Z,89.82
2022-11-30T20:59:03.560Z,89.65
2022-11-30T21:01:31.184Z,90.11
2022-11-30T21:04:00.649Z,90.72
2022-11-30T21:06:30.278Z,89.80
2022-11-30T21:09:03.636Z,89.25
2022-11-30T21:11:31.429Z,89.28
2022-11-30T21:13:59.409Z,89.99
2022-11-30T21:16:29.667Z,90.35
2022-11-30T21:18:59.251Z,89.53
2022-11-30T21:21:35.272Z,89.39
2022-11-30T21:24:06.772Z,89.97
2022-11-30T21:29:57.157Z,88.75
2022-11-30T21:32:29.202Z,88.96
2022-11-30T21:34:57.587Z,90.55
2022-11-30T21:37:25.523Z,89.68
2022-11-30T21:39:53.151Z,89.36
2022-11-30T21:42:26.195Z,88.68
2022-11-30T21:44:53.166Z,89.30
2022-11-30T21:47:21.197Z,89.76
2022-11-30T21:49:53.221Z,90.39
2022-11-30T21:52:21.186Z,89.92
2022-11-30T21:54:53.832Z,89.54
2022-11-30T21:57:21.920Z,88.81
2022-11-30T22:00:15.587Z,88.60
2022-11-30T22:02:43.161Z,88.51
2022-11-30T22:05:11.135Z,89.17
2022-11-30T22:07:45.649Z,89.54
2022-11-30T22:10:13.154Z,90.00
2022-11-30T22:12:41.143Z,89.97
2022-11-30T22:15:09.796Z,90.03
2022-11-30T22:18:02.363Z,89.19
2022-11-30T22:20:29.154Z,89.75
2022-11-30T22:23:01.151Z,89.25
2022-11-30T22:25:53.119Z,89.12
2022-11-30T22:28:50.755Z,89.73
2022-11-30T22:34:13.572Z,90.18
2022-11-30T22:36:43.192Z,89.30
2022-11-30T22:39:21.703Z,89.62
2022-11-30T22:44:43.136Z,89.15
2022-11-30T22:47:17.590Z,90.19
2022-11-30T22:50:11.634Z,89.12
2022-11-30T22:53:01.859Z,88.82
2022-11-30T22:55:27.260Z,89.82
2022-11-30T22:57:55.140Z,90.15
2022-11-30T23:00:23.187Z,89.91
2022-11-30T23:05:43.139Z,89.75
2022-11-30T23:08:11.230Z,89.57
2022-11-30T23:10:39.149Z,89.38
2022-11-30T23:13:07.200Z,89.31
2022-11-30T23:15:35.428Z,89.17
2022-11-30T23:18:03.200Z,89.35
2022-11-30T23:20:31.203Z,89.32
2022-11-30T23:22:59.208Z,88.70
2022-11-30T23:25:31.256Z,89.13
2022-11-30T23:28:04.183Z,89.04
2022-11-30T23:30:32.065Z,88.89
2022-11-30T23:33:30.186Z,89.18
2022-11-30T23:35:57.365Z,89.06
2022-11-30T23:38:25.167Z,88.89
2022-11-30T23:40:53.131Z,89.27
2022-11-30T23:43:21.184Z,88.93
2022-11-30T23:45:49.136Z,89.15
2022-11-30T23:48:17.160Z,88.50
2022-11-30T23:50:50.403Z,89.43
2022-11-30T23:53:17.252Z,89.61
2022-11-30T23:55:45.369Z,90.06
2022-11-30T23:58:13.291Z,90.05
